Time;durP1;ratioP1;P1;durP2;ratioP2;P2;SDS_P1;SDS_P2;PMS_P1;PMS_P2;Temp;Humidity;BMP_temperature;BMP_pressure;BME280_temperature;BME280_humidity;BME280_pressure;Samples;Min_cycle;Max_cycle;Signal;HPM_P1;HPM_P2
2021/10/06 00:01:07;;;;;;;;;;;;;;;8.74;74.08;102156.81;1966695;73;20115;-62
2021/10/06 00:03:34;;;;;;;;;;;;;;;8.72;74.05;102160.77;1966695;73;20100;-62
2021/10/06 00:06:02;;;;;;;;;;;;;;;8.69;74.03;102160.81;1966731;73;20112;-61
2021/10/06 00:08:30;;;;;;;;;;;;;;;8.68;74.11;102163.00;1966830;73;20193;-61
2021/10/06 00:10:58;;;;;;;;;;;;;;;8.65;74.12;102159.97;1966718;73;20112;-62
2021/10/06 00:13:26;;;;;;;;;;;;;;;8.63;74.09;102160.84;1966578;73;20120;-62
2021/10/06 00:15:54;;;;;;;;;;;;;;;8.63;74.18;102162.16;1966740;73;20111;-62
2021/10/06 00:18:23;;;;;;;;;;;;;;;8.62;74.23;102155.18;1966697;73;20115;-62
2021/10/06 00:20:51;;;;;;;;;;;;;;;8.59;74.12;102151.25;1966619;73;20119;-63
2021/10/06 00:23:19;;;;;;;;;;;;;;;8.59;74.34;102156.51;1966703;73;20120;-62
2021/10/06 00:25:47;;;;;;;;;;;;;;;8.56;74.30;102154.79;1966692;73;20111;-62
2021/10/06 00:28:15;;;;;;;;;;;;;;;8.55;74.46;102150.41;1966784;73;20108;-62
2021/10/06 00:30:42;;;;;;;;;;;;;;;8.54;74.44;102157.88;1966697;73;20154;-62
2021/10/06 00:33:10;;;;;;;;;;;;;;;8.53;74.35;102160.05;1966698;73;20171;-62
2021/10/06 00:35:38;;;;;;;;;;;;;;;8.52;74.44;102152.19;1966649;73;20146;-62
2021/10/06 00:38:06;;;;;;;;;;;;;;;8.50;74.51;102163.59;1966708;73;20104;-63
2021/10/06 00:40:33;;;;;;;;;;;;;;;8.50;74.50;102159.65;1966650;73;20108;-62
2021/10/06 00:43:01;;;;;;;;;;;;;;;8.48;74.56;102154.86;1966802;73;20115;-63
2021/10/06 00:45:29;;;;;;;;;;;;;;;8.48;74.67;102156.17;1966704;73;20382;-62
2021/10/06 00:47:57;;;;;;;;;;;;;;;8.47;74.70;102153.10;1966563;73;20115;-64
2021/10/06 00:50:25;;;;;;;;;;;;;;;8.48;74.87;102162.73;1966911;73;20112;-62
2021/10/06 00:52:53;;;;;;;;;;;;;;;8.46;74.77;102155.28;1966624;73;20146;-62
2021/10/06 00:55:20;;;;;;;;;;;;;;;8.46;74.80;102166.23;1963354;73;20167;-62
2021/10/06 00:57:48;;;;;;;;;;;;;;;8.44;74.82;102164.92;1962665;73;20120;-62
2021/10/06 01:00:16;;;;;;;;;;;;;;;8.44;74.76;102167.55;1962630;73;20116;-62
2021/10/06 01:02:44;;;;;;;;;;;;;;;8.44;74.88;102168.00;1962605;73;20100;-62
2021/10/06 01:05:12;;;;;;;;;;;;;;;8.42;74.86;102168.00;1962663;73;20112;-62
2021/10/06 01:07:40;;;;;;;;;;;;;;;8.41;74.99;102164.94;1962583;73;20147;-62
2021/10/06 01:10:09;;;;;;;;;;;;;;;8.40;75.14;102169.73;1962659;73;20150;-62
2021/10/06 01:12:37;;;;;;;;;;;;;;;8.39;74.93;102175.89;1962657;73;20378;-62
2021/10/06 01:15:07;;;;;;;;;;;;;;;8.37;75.00;102178.08;1962556;73;20100;-62
2021/10/06 01:17:35;;;;;;;;;;;;;;;8.36;74.97;102175.90;1962644;73;20116;-62
2021/10/06 01:20:04;;;;;;;;;;;;;;;8.38;75.07;102176.76;1962642;73;20096;-63
2021/10/06 01:22:32;;;;;;;;;;;;;;;8.35;75.08;102183.33;1961811;73;20146;-62
2021/10/06 01:25:01;;;;;;;;;;;;;;;8.33;75.13;102179.84;1962626;73;20143;-62
2021/10/06 01:27:29;;;;;;;;;;;;;;;8.33;75.24;102177.22;1962596;73;20976;-62
2021/10/06 01:29:56;;;;;;;;;;;;;;;8.32;75.32;102178.13;1962560;73;20160;-62
2021/10/06 01:32:24;;;;;;;;;;;;;;;8.30;75.28;102181.20;1962643;73;20111;-62
2021/10/06 01:34:56;;;;;;;;;;;;;;;8.30;75.40;102183.38;1962602;73;20146;-62
2021/10/06 01:40:14;;;;;;;;;;;;;;;8.27;75.49;102175.96;1835725;78;20401;-62
2021/10/06 01:42:42;;;;;;;;;;;;;;;8.27;75.63;102182.07;1835790;78;20151;-62
2021/10/06 01:45:24;;;;;;;;;;;;;;;8.26;75.60;102179.45;1835797;78;20147;-62
2021/10/06 01:47:52;;;;;;;;;;;;;;;8.26;75.73;102183.39;1835759;78;20180;-62
2021/10/06 01:50:24;;;;;;;;;;;;;;;8.26;75.74;102179.45;1835765;78;20149;-62
2021/10/06 01:52:53;;;;;;;;;;;;;;;8.24;75.67;102181.22;1835704;78;20151;-62
2021/10/06 01:55:31;;;;;;;;;;;;;;;8.24;75.74;102181.22;1835767;78;20155;-62
2021/10/06 01:58:00;;;;;;;;;;;;;;;8.22;75.83;102182.53;1835740;78;20425;-62
2021/10/06 02:00:28;;;;;;;;;;;;;;;8.22;75.81;102182.53;1835713;78;20152;-62
2021/10/06 02:02:56;;;;;;;;;;;;;;;8.21;75.70;102179.95;1835755;78;20179;-62
2021/10/06 02:05:23;;;;;;;;;;;;;;;8.20;75.76;102175.12;1835818;78;20152;-62
2021/10/06 02:07:52;;;;;;;;;;;;;;;8.20;75.86;102179.50;1835748;78;20143;-62
2021/10/06 02:10:21;;;;;;;;;;;;;;;8.20;75.95;102177.74;1835760;78;20135;-62
2021/10/06 02:12:49;;;;;;;;;;;;;;;8.19;76.06;102169.88;1835768;78;20179;-62
2021/10/06 02:15:17;;;;;;;;;;;;;;;8.18;76.05;102166.84;1835695;78;20202;-62
2021/10/06 02:17:44;;;;;;;;;;;;;;;8.17;75.97;102171.22;1835680;78;20179;-62
2021/10/06 02:20:12;;;;;;;;;;;;;;;8.15;75.91;102167.70;1835930;78;20152;-62
2021/10/06 02:22:40;;;;;;;;;;;;;;;8.15;76.02;102167.70;1835872;78;20218;-62
2021/10/06 02:25:08;;;;;;;;;;;;;;;8.14;75.94;102163.81;1835818;78;20139;-62
2021/10/06 02:27:36;;;;;;;;;;;;;;;8.13;75.92;102168.16;1835990;78;20163;-62
2021/10/06 02:30:05;;;;;;;;;;;;;;;8.11;75.90;102169.51;1835830;78;20190;-63
2021/10/06 02:32:33;;;;;;;;;;;;;;;8.10;75.81;102170.83;1835862;78;20528;-62
2021/10/06 02:35:02;;;;;;;;;;;;;;;8.10;75.83;102174.31;1835798;78;20191;-62
2021/10/06 02:37:30;;;;;;;;;;;;;;;8.08;75.79;102173.45;1835918;78;20186;-62
2021/10/06 02:39:59;;;;;;;;;;;;;;;8.07;75.71;102176.94;1915408;73;20145;-62
2021/10/06 02:42:27;;;;;;;;;;;;;;;8.05;75.62;102171.28;1929338;74;20118;-62
2021/10/06 02:44:54;;;;;;;;;;;;;;;8.05;75.70;102180.02;1929546;74;20369;-63
2021/10/06 02:47:22;;;;;;;;;;;;;;;8.05;75.79;102178.70;1929487;74;20106;-63
2021/10/06 02:49:50;;;;;;;;;;;;;;;8.03;75.61;102180.47;1929493;74;20372;-63
2021/10/06 02:52:18;;;;;;;;;;;;;;;8.02;75.76;102183.98;1929352;74;20137;-62
2021/10/06 02:54:46;;;;;;;;;;;;;;;8.00;75.56;102177.84;1929376;74;20114;-62
2021/10/06 02:57:13;;;;;;;;;;;;;;;7.99;75.50;102191.00;1929311;74;20172;-62
2021/10/06 02:59:41;;;;;;;;;;;;;;;7.98;75.54;102182.23;1929351;74;20114;-62
2021/10/06 03:02:09;;;;;;;;;;;;;;;7.98;75.57;102186.62;1929353;74;20140;-62
2021/10/06 03:04:38;;;;;;;;;;;;;;;7.97;75.38;102182.23;1984999;72;20110;-60
2021/10/06 03:07:06;;;;;;;;;;;;;;;7.95;75.46;102182.27;1990540;72;20141;-60
2021/10/06 03:09:34;;;;;;;;;;;;;;;7.93;75.39;102187.52;1990493;72;20232;-59
2021/10/06 03:12:02;;;;;;;;;;;;;;;7.92;75.46;102192.77;1990425;72;20110;-59
2021/10/06 03:14:30;;;;;;;;;;;;;;;7.90;75.41;102181.42;1990612;72;20114;-59
2021/10/06 03:16:58;;;;;;;;;;;;;;;7.89;75.51;102194.09;1990538;72;20101;-59
2021/10/06 03:19:25;;;;;;;;;;;;;;;7.88;75.63;102189.28;1990505;72;20114;-59
2021/10/06 03:21:53;;;;;;;;;;;;;;;7.86;75.53;102191.50;1990499;72;20147;-59
2021/10/06 03:24:21;;;;;;;;;;;;;;;7.84;75.50;102198.47;1990484;72;20114;-60
2021/10/06 03:26:49;;;;;;;;;;;;;;;7.82;75.42;102190.64;1990541;72;20106;-59
2021/10/06 03:29:17;;;;;;;;;;;;;;;7.82;75.50;102202.85;1990389;72;20144;-60
2021/10/06 03:31:45;;;;;;;;;;;;;;;7.79;75.17;102196.33;1990353;72;20110;-60
2021/10/06 03:34:13;;;;;;;;;;;;;;;7.76;75.11;102185.39;1990441;72;20187;-63
2021/10/06 03:36:40;;;;;;;;;;;;;;;7.74;75.02;102193.27;1990613;72;20110;-63
2021/10/06 03:39:08;;;;;;;;;;;;;;;7.72;75.00;102193.72;1990310;72;20152;-62
2021/10/06 03:41:36;;;;;;;;;;;;;;;7.72;75.04;102189.78;1990359;72;20181;-62
2021/10/06 03:44:04;;;;;;;;;;;;;;;7.69;75.01;102190.23;1990393;72;20114;-63
2021/10/06 03:46:32;;;;;;;;;;;;;;;7.68;75.06;102189.37;1990412;72;20144;-64
2021/10/06 03:49:00;;;;;;;;;;;;;;;7.64;74.77;102188.95;1990421;72;20102;-65
2021/10/06 03:51:28;;;;;;;;;;;;;;;7.61;74.76;102191.58;1990482;72;20352;-65
2021/10/06 03:53:55;;;;;;;;;;;;;;;7.60;74.85;102192.47;1990368;72;20110;-63
2021/10/06 03:56:24;;;;;;;;;;;;;;;7.59;74.98;102186.78;1990431;72;20168;-66
2021/10/06 03:58:51;;;;;;;;;;;;;;;7.56;74.85;102190.71;1990406;72;20101;-66
2021/10/06 04:01:19;;;;;;;;;;;;;;;7.56;75.04;102193.33;1990381;72;20109;-66
2021/10/06 04:03:47;;;;;;;;;;;;;;;7.54;74.95;102191.16;1990365;72;20148;-65
2021/10/06 04:06:15;;;;;;;;;;;;;;;7.53;74.84;102197.30;1990291;72;20117;-65
2021/10/06 04:08:43;;;;;;;;;;;;;;;7.51;74.85;102191.19;1990405;72;20161;-64
2021/10/06 04:11:11;;;;;;;;;;;;;;;7.51;74.80;102196.43;1990395;72;20106;-66
2021/10/06 04:13:38;;;;;;;;;;;;;;;7.50;74.84;102198.16;1990415;72;20189;-66
2021/10/06 04:16:06;;;;;;;;;;;;;;;7.50;74.89;102205.16;1990424;72;20118;-67
2021/10/06 04:18:34;;;;;;;;;;;;;;;7.50;75.03;102198.61;1990304;72;20110;-66
2021/10/06 04:21:02;;;;;;;;;;;;;;;7.50;75.08;102205.16;1990374;72;20114;-65
2021/10/06 04:23:29;;;;;;;;;;;;;;;7.47;75.15;102202.53;1990402;72;20109;-65
2021/10/06 04:25:57;;;;;;;;;;;;;;;7.48;75.31;102213.47;1990540;72;20144;-65
2021/10/06 04:28:25;;;;;;;;;;;;;;;7.49;75.34;102211.30;1990508;72;20106;-65
2021/10/06 04:30:53;;;;;;;;;;;;;;;7.48;75.43;102212.16;1990494;72;20196;-65
2021/10/06 04:33:20;;;;;;;;;;;;;;;7.48;75.32;102214.77;1990367;72;20098;-65
2021/10/06 04:35:49;;;;;;;;;;;;;;;7.48;75.40;102213.47;1990439;72;20150;-66
2021/10/06 04:38:16;;;;;;;;;;;;;;;7.46;75.43;102217.39;1990410;72;20140;-64
2021/10/06 04:40:44;;;;;;;;;;;;;;;7.43;75.35;102213.49;1990359;72;20114;-65
2021/10/06 04:43:13;;;;;;;;;;;;;;;7.44;75.52;102216.98;1990393;72;20117;-65
2021/10/06 04:45:40;;;;;;;;;;;;;;;7.42;75.50;102219.59;1990510;72;20376;-65
2021/10/06 04:48:08;;;;;;;;;;;;;;;7.43;75.57;102227.01;1990397;72;20106;-65
2021/10/06 04:50:36;;;;;;;;;;;;;;;7.43;75.60;102225.70;1990413;72;20134;-65
2021/10/06 04:53:05;;;;;;;;;;;;;;;7.42;75.65;102231.39;1990463;72;20389;-65
2021/10/06 04:55:32;;;;;;;;;;;;;;;7.41;75.66;102234.01;1990614;72;20409;-65
2021/10/06 04:58:00;;;;;;;;;;;;;;;7.39;75.60;102235.77;1990414;72;20117;-65
2021/10/06 05:00:28;;;;;;;;;;;;;;;7.37;75.45;102224.41;1990315;72;20140;-65
2021/10/06 05:02:56;;;;;;;;;;;;;;;7.40;75.66;102229.66;1990390;72;20098;-65
2021/10/06 05:05:24;;;;;;;;;;;;;;;7.42;75.61;102231.39;1983040;72;20119;-65
2021/10/06 05:07:51;;;;;;;;;;;;;;;7.39;75.39;102236.63;1980514;72;20106;-65
2021/10/06 05:10:19;;;;;;;;;;;;;;;7.37;75.56;102231.83;1980495;72;20114;-65
2021/10/06 05:12:47;;;;;;;;;;;;;;;7.35;75.50;102234.45;1980447;72;20118;-65
2021/10/06 05:15:15;;;;;;;;;;;;;;;7.33;75.39;102230.96;1980452;72;20141;-65
2021/10/06 05:17:43;;;;;;;;;;;;;;;7.34;75.45;102228.79;1980452;72;20427;-65
2021/10/06 05:20:11;;;;;;;;;;;;;;;7.34;75.40;102227.48;1980486;72;20141;-65
2021/10/06 05:22:38;;;;;;;;;;;;;;;7.38;75.67;102235.31;1980467;72;20118;-65
2021/10/06 05:25:07;;;;;;;;;;;;;;;7.38;75.48;102237.93;1980530;72;20098;-65
2021/10/06 05:27:35;;;;;;;;;;;;;;;7.37;75.20;102249.31;1980376;72;20240;-65
2021/10/06 05:30:04;;;;;;;;;;;;;;;7.39;75.50;102252.80;1980487;72;20140;-65
2021/10/06 05:32:32;;;;;;;;;;;;;;;7.40;75.46;102259.35;1980486;72;20114;-65
2021/10/06 05:35:00;;;;;;;;;;;;;;;7.40;75.40;102271.59;1980548;72;20094;-65
2021/10/06 05:37:28;;;;;;;;;;;;;;;7.41;75.46;102272.00;1980487;72;20110;-65
2021/10/06 05:39:56;;;;;;;;;;;;;;;7.43;75.46;102274.19;1980383;72;20110;-66
2021/10/06 05:42:24;;;;;;;;;;;;;;;7.43;75.34;102279.42;1980454;72;20098;-65
2021/10/06 05:44:51;;;;;;;;;;;;;;;7.44;75.52;102282.50;1980458;72;20110;-65
2021/10/06 05:47:19;;;;;;;;;;;;;;;7.43;75.21;102284.67;1980530;72;20119;-65
2021/10/06 05:49:47;;;;;;;;;;;;;;;7.43;75.26;102281.63;1980459;72;20140;-65
2021/10/06 05:52:15;;;;;;;;;;;;;;;7.44;75.31;102286.42;1980453;72;20107;-65
2021/10/06 05:54:43;;;;;;;;;;;;;;;7.44;75.47;102285.12;1980498;72;20220;-65
2021/10/06 05:57:11;;;;;;;;;;;;;;;7.46;75.61;102282.92;1980527;72;20144;-65
2021/10/06 05:59:39;;;;;;;;;;;;;;;7.49;75.62;102287.30;1980468;72;20110;-65
2021/10/06 06:02:07;;;;;;;;;;;;;;;7.50;75.66;102294.27;1980447;72;20103;-66
2021/10/06 06:04:34;;;;;;;;;;;;;;;7.53;75.66;102292.97;1981773;72;20286;-66
2021/10/06 06:07:02;;;;;;;;;;;;;;;7.55;75.62;102287.28;1990251;72;20144;-65
2021/10/06 06:09:30;;;;;;;;;;;;;;;7.57;75.42;102300.39;1990316;72;20144;-65
2021/10/06 06:12:00;;;;;;;;;;;;;;;7.57;75.50;102301.70;1990344;72;20153;-65
2021/10/06 06:14:28;;;;;;;;;;;;;;;7.60;75.50;102306.50;1990456;72;20094;-65
2021/10/06 06:16:56;;;;;;;;;;;;;;;7.61;75.31;102304.75;1990431;72;20141;-65
2021/10/06 06:36:14;;;;;;;;;;;;;;;7.75;75.05;102300.36;1990154;72;20383;-67
2021/10/06 06:38:42;;;;;;;;;;;;;;;7.78;74.79;102292.45;1990329;72;20141;-65
2021/10/06 06:41:10;;;;;;;;;;;;;;;7.79;74.85;102300.77;1990424;72;20141;-65
2021/10/06 06:43:38;;;;;;;;;;;;;;;7.81;74.87;102299.47;1990297;72;20106;-65
2021/10/06 06:46:05;;;;;;;;;;;;;;;7.81;74.74;102296.84;1990304;72;20144;-65
2021/10/06 06:48:33;;;;;;;;;;;;;;;7.80;74.66;102295.08;1990244;72;20164;-65
2021/10/06 06:51:01;;;;;;;;;;;;;;;7.79;74.21;102303.84;1990312;72;20114;-65
2021/10/06 06:53:30;;;;;;;;;;;;;;;7.80;74.17;102299.02;1990282;72;20114;-65
2021/10/06 06:55:59;;;;;;;;;;;;;;;7.80;73.95;102305.16;1990342;72;20114;-65
2021/10/06 06:58:27;;;;;;;;;;;;;;;7.80;73.86;102296.39;1990265;72;20110;-65
2021/10/06 07:00:55;;;;;;;;;;;;;;;7.82;74.13;102302.09;1990307;72;20098;-65
2021/10/06 07:03:23;;;;;;;;;;;;;;;7.83;74.00;102302.50;1990381;72;20161;-66
2021/10/06 07:05:51;;;;;;;;;;;;;;;7.87;74.02;102303.38;1985761;72;20115;-65
2021/10/06 07:08:18;;;;;;;;;;;;;;;7.90;73.86;102307.31;1980520;72;20126;-65
2021/10/06 07:10:46;;;;;;;;;;;;;;;7.93;73.85;102307.31;1980543;72;20106;-65
2021/10/06 07:13:14;;;;;;;;;;;;;;;7.94;73.35;102312.97;1980559;72;20114;-65
2021/10/06 07:15:42;;;;;;;;;;;;;;;7.96;73.56;102316.46;1980545;72;20098;-65
2021/10/06 07:18:10;;;;;;;;;;;;;;;7.97;73.31;102324.78;1980587;72;20126;-65
2021/10/06 07:20:38;;;;;;;;;;;;;;;7.97;73.31;102323.47;1980510;72;20111;-65
2021/10/06 07:23:06;;;;;;;;;;;;;;;7.99;73.21;102322.16;1980471;72;20115;-65
2021/10/06 07:25:34;;;;;;;;;;;;;;;8.00;73.17;102329.99;1980492;72;20188;-65
2021/10/06 07:28:02;;;;;;;;;;;;;;;8.02;73.24;102321.70;1980536;72;20116;-65
2021/10/06 07:30:29;;;;;;;;;;;;;;;8.06;73.40;102321.23;1980503;72;20111;-65
2021/10/06 07:32:58;;;;;;;;;;;;;;;8.09;73.26;102322.09;1980524;72;20114;-65
2021/10/06 07:35:26;;;;;;;;;;;;;;;8.11;73.12;102326.92;1980534;72;20418;-65
2021/10/06 07:37:54;;;;;;;;;;;;;;;8.16;73.25;102329.97;1980510;72;20153;-65
2021/10/06 07:40:22;;;;;;;;;;;;;;;8.20;73.28;102329.06;1980483;72;20137;-64
2021/10/06 07:42:51;;;;;;;;;;;;;;;8.22;73.00;102329.93;1980444;72;20114;-66
2021/10/06 07:45:18;;;;;;;;;;;;;;;8.23;73.04;102334.31;1980520;72;20226;-65
2021/10/06 07:47:46;;;;;;;;;;;;;;;8.25;73.19;102339.11;1980639;72;20122;-65
2021/10/06 07:50:14;;;;;;;;;;;;;;;8.28;73.28;102332.52;1980542;72;20173;-65
2021/10/06 07:52:42;;;;;;;;;;;;;;;8.32;73.45;102334.28;1980538;72;20102;-65
2021/10/06 07:55:10;;;;;;;;;;;;;;;8.37;73.29;102343.43;1980519;72;20102;-65
2021/10/06 07:57:38;;;;;;;;;;;;;;;8.41;73.46;102334.66;1980428;72;20402;-65
2021/10/06 08:00:08;;;;;;;;;;;;;;;8.44;73.36;102332.06;1980526;72;20388;-65
2021/10/06 08:02:38;;;;;;;;;;;;;;;8.47;73.09;102341.25;1980633;72;20122;-65
2021/10/06 08:05:06;;;;;;;;;;;;;;;8.48;72.94;102333.37;1980540;72;20106;-65
2021/10/06 08:07:34;;;;;;;;;;;;;;;8.48;72.95;102341.24;1980429;72;20195;-65
2021/10/06 08:10:04;;;;;;;;;;;;;;;8.51;73.21;102342.97;1980475;72;20114;-66
2021/10/06 08:12:32;;;;;;;;;;;;;;;8.54;73.29;102343.38;1980516;72;20122;-65
2021/10/06 08:15:00;;;;;;;;;;;;;;;8.57;72.97;102348.63;1980508;72;20115;-65
2021/10/06 08:17:28;;;;;;;;;;;;;;;8.59;73.17;102344.23;1980472;72;20140;-65
2021/10/06 08:19:56;;;;;;;;;;;;;;;8.60;72.74;102346.00;1980494;72;20114;-65
2021/10/06 08:22:23;;;;;;;;;;;;;;;8.62;72.87;102346.86;1980464;72;20146;-65
2021/10/06 08:24:52;;;;;;;;;;;;;;;8.64;72.52;102343.78;1980469;72;20184;-65
2021/10/06 08:27:20;;;;;;;;;;;;;;;8.67;72.53;102338.52;1980523;72;20144;-64
2021/10/06 08:29:48;;;;;;;;;;;;;;;8.72;72.28;102341.97;1980473;72;20140;-65
2021/10/06 08:32:16;;;;;;;;;;;;;;;8.77;72.18;102341.95;1980552;72;20132;-65
2021/10/06 08:34:44;;;;;;;;;;;;;;;8.79;71.98;102346.31;1980519;72;20149;-65
2021/10/06 08:37:12;;;;;;;;;;;;;;;8.81;71.75;102349.80;1980411;72;20110;-65
2021/10/06 08:39:40;;;;;;;;;;;;;;;8.82;71.28;102344.12;1980528;72;20118;-65
2021/10/06 08:42:08;;;;;;;;;;;;;;;8.86;71.08;102341.91;1980674;72;20098;-64
2021/10/06 08:44:37;;;;;;;;;;;;;;;8.87;70.96;102345.84;1980438;72;20103;-65
2021/10/06 08:47:06;;;;;;;;;;;;;;;8.88;70.70;102341.00;1980491;72;20392;-65
2021/10/06 08:49:34;;;;;;;;;;;;;;;8.91;70.46;102337.91;1980628;72;20294;-65
2021/10/06 08:52:02;;;;;;;;;;;;;;;8.93;70.77;102337.46;1980481;72;20114;-64
2021/10/06 08:54:32;;;;;;;;;;;;;;;8.95;70.39;102336.59;1980519;72;20098;-64
2021/10/06 08:56:59;;;;;;;;;;;;;;;8.99;70.24;102334.36;1980626;72;20137;-65
2021/10/06 08:59:27;;;;;;;;;;;;;;;9.02;70.09;102340.92;1980493;72;20626;-65
2021/10/06 09:01:55;;;;;;;;;;;;;;;9.04;69.96;102339.61;1980475;72;20114;-65
2021/10/06 09:04:32;;;;;;;;;;;;;;;9.04;69.65;102348.80;1980473;72;20104;-65
2021/10/06 09:07:05;;;;;;;;;;;;;;;9.05;69.81;102343.95;1984572;72;20098;-65
2021/10/06 09:09:33;;;;;;;;;;;;;;;9.06;69.94;102348.34;1990396;72;20114;-65
2021/10/06 09:12:03;;;;;;;;;;;;;;;9.07;69.89;102351.38;1990535;72;20145;-65
2021/10/06 09:14:31;;;;;;;;;;;;;;;9.09;69.97;102350.93;1990364;72;20388;-66
2021/10/06 09:17:06;;;;;;;;;;;;;;;9.10;69.97;102347.88;1990440;72;20157;-65
2021/10/06 09:19:38;;;;;;;;;;;;;;;9.11;69.95;102346.98;1990380;72;20208;-65
2021/10/06 09:22:08;;;;;;;;;;;;;;;9.12;70.16;102346.97;1990314;72;20139;-65
2021/10/06 09:24:49;;;;;;;;;;;;;;;9.15;70.24;102343.02;1989897;72;20134;-65
2021/10/06 09:27:22;;;;;;;;;;;;;;;9.15;69.82;102340.81;1990249;72;20106;-65
2021/10/06 09:29:51;;;;;;;;;;;;;;;9.15;70.09;102344.34;1990279;72;20381;-65
2021/10/06 09:32:22;;;;;;;;;;;;;;;9.16;70.24;102343.44;1990341;72;20349;-65
2021/10/06 09:35:08;;;;;;;;;;;;;;;9.17;70.26;102342.56;1990364;72;20106;-65
2021/10/06 09:37:37;;;;;;;;;;;;;;;9.17;70.09;102343.88;1990315;72;20144;-67
2021/10/06 09:40:06;;;;;;;;;;;;;;;9.18;70.11;102346.05;1990342;72;20380;-65
2021/10/06 09:42:41;;;;;;;;;;;;;;;9.18;69.72;102344.29;1990472;72;20157;-65
2021/10/06 09:45:10;;;;;;;;;;;;;;;9.18;69.84;102336.41;1989850;72;20140;-65
2021/10/06 09:47:37;;;;;;;;;;;;;;;9.20;70.15;102342.55;1990327;72;20114;-65
2021/10/06 09:50:05;;;;;;;;;;;;;;;9.23;70.21;102346.91;1990287;72;20102;-66
2021/10/06 09:52:33;;;;;;;;;;;;;;;9.26;70.44;102350.38;1990480;72;20102;-65
2021/10/06 09:55:06;;;;;;;;;;;;;;;9.27;70.11;102340.73;1990361;72;20118;-65
2021/10/06 09:57:34;;;;;;;;;;;;;;;9.27;69.77;102332.39;1990476;72;20144;-65
2021/10/06 10:00:07;;;;;;;;;;;;;;;9.27;70.11;102336.33;1990441;72;20097;-65
2021/10/06 10:02:41;;;;;;;;;;;;;;;9.26;69.81;102339.86;1990237;72;20151;-65
2021/10/06 10:05:09;;;;;;;;;;;;;;;9.24;69.90;102332.44;1990262;72;20098;-65
2021/10/06 10:07:38;;;;;;;;;;;;;;;9.23;70.00;102326.73;1984626;72;20181;-65
2021/10/06 10:10:07;;;;;;;;;;;;;;;9.23;69.94;102343.82;1977473;73;20141;-65
2021/10/06 10:12:35;;;;;;;;;;;;;;;9.22;69.89;102327.64;1977402;73;20149;-65
2021/10/06 10:15:03;;;;;;;;;;;;;;;9.24;70.16;102328.49;1977314;73;20110;-66
2021/10/06 10:17:31;;;;;;;;;;;;;;;9.26;70.14;102333.30;1977520;73;20142;-65
2021/10/06 10:20:03;;;;;;;;;;;;;;;9.28;69.72;102340.72;1977379;73;20107;-65
2021/10/06 10:22:32;;;;;;;;;;;;;;;9.28;69.80;102332.84;1977387;73;20099;-65
2021/10/06 10:25:01;;;;;;;;;;;;;;;9.28;69.90;102340.72;1977437;73;20103;-65
2021/10/06 10:27:29;;;;;;;;;;;;;;;9.29;69.99;102344.21;1975501;72;20115;-66
2021/10/06 10:30:04;;;;;;;;;;;;;;;9.31;70.04;102346.83;1977336;73;20182;-65
2021/10/06 10:32:29;;;;;;;;;;;;;;;9.31;69.77;102346.83;1975835;72;20380;-65
2021/10/06 10:35:01;;;;;;;;;;;;;;;9.35;70.15;102347.23;1977449;73;20123;-65
2021/10/06 10:37:49;;;;;;;;;;;;;;;9.36;69.71;102348.54;1977429;73;20114;-65
2021/10/06 10:40:33;;;;;;;;;;;;;;;9.35;69.45;102341.98;1977386;73;20141;-65
2021/10/06 10:43:03;;;;;;;;;;;;;;;9.36;69.78;102346.36;1977504;73;20098;-63
2021/10/06 10:45:40;;;;;;;;;;;;;;;9.37;69.55;102341.52;1977595;73;20102;-63
2021/10/06 10:48:05;;;;;;;;;;;;;;;9.36;69.35;102350.30;1975773;72;20166;-63
2021/10/06 10:50:41;;;;;;;;;;;;;;;9.35;69.56;102347.23;1977549;73;20361;-64
2021/10/06 10:53:09;;;;;;;;;;;;;;;9.35;69.79;102348.55;1977594;73;20361;-63
2021/10/06 10:55:54;;;;;;;;;;;;;;;9.34;69.58;102362.59;1977474;73;20110;-63
2021/10/06 10:58:33;;;;;;;;;;;;;;;9.34;69.75;102357.34;1977595;73;20111;-63
2021/10/06 11:01:03;;;;;;;;;;;;;;;9.35;69.76;102362.59;1977393;73;20423;-64
2021/10/06 11:03:31;;;;;;;;;;;;;;;9.34;69.30;102360.83;1977591;73;20122;-63
2021/10/06 11:05:59;;;;;;;;;;;;;;;9.35;69.47;102364.31;1977488;73;20144;-63
2021/10/06 11:08:28;;;;;;;;;;;;;;;9.35;69.48;102365.63;1982693;72;20141;-63
2021/10/06 11:11:06;;;;;;;;;;;;;;;9.35;69.73;102357.33;1987358;72;20158;-63
2021/10/06 11:13:37;;;;;;;;;;;;;;;9.34;69.64;102356.88;1982869;72;20114;-64
2021/10/06 11:16:05;;;;;;;;;;;;;;;9.35;69.47;102357.75;1986951;72;20144;-63
2021/10/06 11:18:41;;;;;;;;;;;;;;;9.35;69.55;102361.69;1987532;72;20394;-63
2021/10/06 11:21:10;;;;;;;;;;;;;;;9.36;69.44;102352.48;1920244;72;20106;-63
2021/10/06 11:23:42;;;;;;;;;;;;;;;9.39;69.38;102364.30;1920249;75;20145;-63
2021/10/06 11:26:12;;;;;;;;;;;;;;;9.40;69.56;102368.66;1920233;75;20111;-63
2021/10/06 11:28:41;;;;;;;;;;;;;;;9.41;69.65;102370.41;1920325;75;20127;-63
2021/10/06 11:31:09;;;;;;;;;;;;;;;9.42;69.61;102369.96;1919810;75;20145;-63
2021/10/06 11:33:38;;;;;;;;;;;;;;;9.42;69.52;102379.16;1920281;75;20110;-63
2021/10/06 11:36:10;;;;;;;;;;;;;;;9.40;69.30;102379.63;1920286;75;20134;-64
2021/10/06 11:38:39;;;;;;;;;;;;;;;9.38;69.29;102370.42;1920214;74;20416;-63
2021/10/06 11:41:07;;;;;;;;;;;;;;;9.37;69.34;102373.95;1920302;75;20123;-63
2021/10/06 11:43:38;;;;;;;;;;;;;;;9.38;69.58;102372.19;1920288;75;20149;-64
2021/10/06 11:46:06;;;;;;;;;;;;;;;9.39;69.78;102371.33;1920314;75;20122;-63
2021/10/06 11:48:34;;;;;;;;;;;;;;;9.40;69.82;102371.28;1920287;75;20158;-63
2021/10/06 11:51:02;;;;;;;;;;;;;;;9.40;69.56;102365.16;1920173;75;20149;-64
2021/10/06 11:53:39;;;;;;;;;;;;;;;9.42;69.51;102367.33;1920330;75;20144;-63
2021/10/06 11:56:07;;;;;;;;;;;;;;;9.40;69.38;102358.14;1920429;75;20400;-65
2021/10/06 11:58:36;;;;;;;;;;;;;;;9.40;69.75;102367.79;1920388;75;20149;-66
2021/10/06 12:01:08;;;;;;;;;;;;;;;9.42;69.96;102364.70;1920300;75;20160;-65
2021/10/06 12:03:40;;;;;;;;;;;;;;;9.45;69.90;102363.38;1920186;74;20119;-65
2021/10/06 12:06:09;;;;;;;;;;;;;;;9.47;69.78;102372.12;1920360;75;20122;-64
2021/10/06 12:08:37;;;;;;;;;;;;;;;9.49;70.04;102366.84;1920274;74;20142;-64
2021/10/06 12:11:07;;;;;;;;;;;;;;;9.50;69.65;102361.59;1920374;74;20156;-65
2021/10/06 12:13:37;;;;;;;;;;;;;;;9.51;69.71;102365.08;1920341;75;20110;-64
2021/10/06 12:16:21;;;;;;;;;;;;;;;9.50;69.09;102369.47;1920240;75;20161;-65
2021/10/06 12:18:53;;;;;;;;;;;;;;;9.51;69.40;102367.25;1920263;75;20099;-64
2021/10/06 12:21:22;;;;;;;;;;;;;;;9.53;69.46;102369.42;1910570;75;20146;-65
2021/10/06 12:23:50;;;;;;;;;;;;;;;9.55;69.59;102376.86;1908570;75;20113;-64
2021/10/06 12:26:20;;;;;;;;;;;;;;;9.55;69.29;102366.33;1908530;75;20115;-64
2021/10/06 12:28:56;;;;;;;;;;;;;;;9.56;69.33;102357.58;1908766;75;20204;-64
2021/10/06 12:31:28;;;;;;;;;;;;;;;9.58;69.43;102367.64;1908321;75;20119;-64
2021/10/06 12:34:16;;;;;;;;;;;;;;;9.58;69.14;102362.37;1908620;75;20369;-64
2021/10/06 12:36:47;;;;;;;;;;;;;;;9.59;69.29;102358.87;1935236;74;20169;-64
2021/10/06 12:39:16;;;;;;;;;;;;;;;9.60;69.19;102367.17;1943406;74;20257;-64
2021/10/06 12:41:51;;;;;;;;;;;;;;;9.59;69.05;102360.19;1943454;74;20170;-64
2021/10/06 12:44:16;;;;;;;;;;;;;;;9.60;69.30;102359.73;1943252;74;20120;-65
2021/10/06 12:46:44;;;;;;;;;;;;;;;9.58;69.32;102361.06;1943513;74;20421;-64
2021/10/06 12:49:12;;;;;;;;;;;;;;;9.59;69.41;102368.50;1943667;73;20136;-64
2021/10/06 12:51:41;;;;;;;;;;;;;;;9.58;69.36;102362.37;1943393;73;20207;-64
2021/10/06 12:54:16;;;;;;;;;;;;;;;9.58;69.67;102367.64;1943519;73;20406;-64
2021/10/06 12:56:51;;;;;;;;;;;;;;;9.56;69.66;102368.09;1943295;74;20128;-64
2021/10/06 12:59:21;;;;;;;;;;;;;;;9.55;69.91;102362.39;1943510;73;20237;-64
2021/10/06 13:01:48;;;;;;;;;;;;;;;9.54;69.93;102368.55;1943129;74;20140;-64
2021/10/06 13:04:17;;;;;;;;;;;;;;;9.53;69.84;102365.48;1943438;73;20166;-64
2021/10/06 13:06:46;;;;;;;;;;;;;;;9.53;70.02;102369.42;1960752;73;20170;-63
2021/10/06 13:09:15;;;;;;;;;;;;;;;9.53;70.21;102372.05;1972614;73;20100;-63
2021/10/06 13:11:44;;;;;;;;;;;;;;;9.50;70.18;102369.47;1972400;73;20370;-63
2021/10/06 13:14:12;;;;;;;;;;;;;;;9.50;70.32;102372.10;1972403;73;20111;-63
2021/10/06 13:16:41;;;;;;;;;;;;;;;9.51;70.42;102368.57;1972282;73;20147;-63